sensor_id;sensor_type;location;lat;lon;timestamp;P1;durP1;ratioP1;P2;durP2;ratioP2
64395;SDS011;50717;53.360;6.290;2022-12-29T00:02:13;8.27;;;7.45;;
64395;SDS011;50717;53.360;6.290;2022-12-29T00:04:39;9.45;;;7.20;;
64395;SDS011;50717;53.360;6.290;2022-12-29T00:07:05;7.68;;;6.80;;
64395;SDS011;50717;53.360;6.290;2022-12-29T00:09:31;8.93;;;7.60;;
64395;SDS011;50717;53.360;6.290;2022-12-29T00:11:58;8.38;;;7.43;;
64395;SDS011;50717;53.360;6.290;2022-12-29T00:14:23;9.40;;;7.38;;
64395;SDS011;50717;53.360;6.290;2022-12-29T00:17:08;11.00;;;8.38;;
64395;SDS011;50717;53.360;6.290;2022-12-29T00:19:34;8.93;;;7.88;;
64395;SDS011;50717;53.360;6.290;2022-12-29T00:22:18;9.82;;;7.68;;
64395;SDS011;50717;53.360;6.290;2022-12-29T00:25:03;7.85;;;7.05;;
64395;SDS011;50717;53.360;6.290;2022-12-29T00:27:48;9.35;;;6.70;;
64395;SDS011;50717;53.360;6.290;2022-12-29T00:30:32;7.80;;;6.57;;
64395;SDS011;50717;53.360;6.290;2022-12-29T00:33:20;6.63;;;6.03;;
64395;SDS011;50717;53.360;6.290;2022-12-29T00:36:12;7.13;;;5.72;;
64395;SDS011;50717;53.360;6.290;2022-12-29T00:38:43;10.07;;;6.15;;
64395;SDS011;50717;53.360;6.290;2022-12-29T00:41:49;8.17;;;6.07;;
64395;SDS011;50717;53.360;6.290;2022-12-29T00:44:33;7.32;;;5.90;;
64395;SDS011;50717;53.360;6.290;2022-12-29T00:46:59;10.18;;;6.15;;
64395;SDS011;50717;53.360;6.290;2022-12-29T00:49:28;6.85;;;6.03;;
64395;SDS011;50717;53.360;6.290;2022-12-29T00:52:01;7.70;;;6.47;;
64395;SDS011;50717;53.360;6.290;2022-12-29T00:54:31;8.43;;;7.10;;
64395;SDS011;50717;53.360;6.290;2022-12-29T00:56:58;7.35;;;6.65;;
64395;SDS011;50717;53.360;6.290;2022-12-29T00:59:24;9.82;;;7.55;;
64395;SDS011;50717;53.360;6.290;2022-12-29T01:01:50;9.70;;;6.28;;
64395;SDS011;50717;53.360;6.290;2022-12-29T01:04:17;9.93;;;6.53;;
64395;SDS011;50717;53.360;6.290;2022-12-29T01:06:43;9.93;;;7.40;;
64395;SDS011;50717;53.360;6.290;2022-12-29T01:09:09;9.48;;;6.95;;
64395;SDS011;50717;53.360;6.290;2022-12-29T01:11:53;8.90;;;7.15;;
64395;SDS011;50717;53.360;6.290;2022-12-29T01:14:20;9.00;;;7.63;;
64395;SDS011;50717;53.360;6.290;2022-12-29T01:16:46;9.10;;;7.10;;
64395;SDS011;50717;53.360;6.290;2022-12-29T01:19:12;8.18;;;7.30;;
64395;SDS011;50717;53.360;6.290;2022-12-29T01:21:38;9.85;;;7.05;;
64395;SDS011;50717;53.360;6.290;2022-12-29T01:24:04;8.43;;;7.53;;
64395;SDS011;50717;53.360;6.290;2022-12-29T01:26:29;7.85;;;7.03;;
64395;SDS011;50717;53.360;6.290;2022-12-29T01:28:56;7.40;;;6.70;;
64395;SDS011;50717;53.360;6.290;2022-12-29T01:31:21;9.70;;;7.68;;
64395;SDS011;50717;53.360;6.290;2022-12-29T01:33:47;8.38;;;7.07;;
64395;SDS011;50717;53.360;6.290;2022-12-29T01:36:14;7.63;;;6.50;;
64395;SDS011;50717;53.360;6.290;2022-12-29T01:38:41;9.73;;;7.07;;
64395;SDS011;50717;53.360;6.290;2022-12-29T01:41:08;9.30;;;7.00;;
64395;SDS011;50717;53.360;6.290;2022-12-29T01:43:45;9.35;;;7.25;;
64395;SDS011;50717;53.360;6.290;2022-12-29T01:46:23;10.07;;;7.70;;
64395;SDS011;50717;53.360;6.290;2022-12-29T01:51:53;9.88;;;8.10;;
64395;SDS011;50717;53.360;6.290;2022-12-29T01:54:25;9.55;;;7.95;;
64395;SDS011;50717;53.360;6.290;2022-12-29T01:56:55;9.77;;;8.00;;
64395;SDS011;50717;53.360;6.290;2022-12-29T01:59:26;11.45;;;8.00;;
64395;SDS011;50717;53.360;6.290;2022-12-29T02:01:54;12.73;;;8.00;;
64395;SDS011;50717;53.360;6.290;2022-12-29T02:04:20;10.40;;;7.80;;
64395;SDS011;50717;53.360;6.290;2022-12-29T02:06:55;11.10;;;8.63;;
64395;SDS011;50717;53.360;6.290;2022-12-29T02:09:26;11.45;;;8.98;;
64395;SDS011;50717;53.360;6.290;2022-12-29T02:11:51;11.15;;;9.65;;
64395;SDS011;50717;53.360;6.290;2022-12-29T02:17:04;11.68;;;8.98;;
64395;SDS011;50717;53.360;6.290;2022-12-29T02:31:51;16.13;;;10.20;;
64395;SDS011;50717;53.360;6.290;2022-12-29T02:37:22;10.13;;;6.70;;
64395;SDS011;50717;53.360;6.290;2022-12-29T02:40:01;8.75;;;4.45;;
64395;SDS011;50717;53.360;6.290;2022-12-29T02:42:47;5.20;;;2.75;;
64395;SDS011;50717;53.360;6.290;2022-12-29T02:48:45;3.22;;;0.90;;
64395;SDS011;50717;53.360;6.290;2022-12-29T02:53:35;5.95;;;1.33;;
64395;SDS011;50717;53.360;6.290;2022-12-29T02:56:20;8.60;;;0.80;;
64395;SDS011;50717;53.360;6.290;2022-12-29T02:58:46;3.97;;;1.20;;
64395;SDS011;50717;53.360;6.290;2022-12-29T03:16:03;1.92;;;1.50;;
64395;SDS011;50717;53.360;6.290;2022-12-29T03:24:16;7.15;;;5.50;;
64395;SDS011;50717;53.360;6.290;2022-12-29T03:26:44;10.10;;;7.45;;
64395;SDS011;50717;53.360;6.290;2022-12-29T03:29:12;8.73;;;7.53;;
64395;SDS011;50717;53.360;6.290;2022-12-29T03:31:40;13.23;;;8.27;;
64395;SDS011;50717;53.360;6.290;2022-12-29T03:34:07;13.18;;;8.45;;
64395;SDS011;50717;53.360;6.290;2022-12-29T03:36:47;13.68;;;6.63;;
64395;SDS011;50717;53.360;6.290;2022-12-29T03:39:16;13.82;;;5.20;;
64395;SDS011;50717;53.360;6.290;2022-12-29T03:41:43;12.85;;;4.43;;
64395;SDS011;50717;53.360;6.290;2022-12-29T03:44:10;11.88;;;4.05;;
64395;SDS011;50717;53.360;6.290;2022-12-29T03:46:37;11.63;;;3.65;;
64395;SDS011;50717;53.360;6.290;2022-12-29T03:49:03;13.13;;;3.17;;
64395;SDS011;50717;53.360;6.290;2022-12-29T03:51:29;9.25;;;3.10;;
64395;SDS011;50717;53.360;6.290;2022-12-29T03:53:54;7.53;;;2.90;;
64395;SDS011;50717;53.360;6.290;2022-12-29T03:56:20;12.70;;;3.53;;
64395;SDS011;50717;53.360;6.290;2022-12-29T03:58:46;13.13;;;3.13;;
64395;SDS011;50717;53.360;6.290;2022-12-29T04:01:12;10.23;;;3.08;;
64395;SDS011;50717;53.360;6.290;2022-12-29T04:03:37;8.02;;;3.08;;
64395;SDS011;50717;53.360;6.290;2022-12-29T04:06:03;6.53;;;2.65;;
64395;SDS011;50717;53.360;6.290;2022-12-29T04:08:29;8.30;;;2.70;;
64395;SDS011;50717;53.360;6.290;2022-12-29T04:10:55;9.27;;;3.20;;
64395;SDS011;50717;53.360;6.290;2022-12-29T04:13:20;8.85;;;2.65;;
64395;SDS011;50717;53.360;6.290;2022-12-29T04:15:46;9.57;;;3.00;;
64395;SDS011;50717;53.360;6.290;2022-12-29T04:18:12;9.70;;;3.13;;
64395;SDS011;50717;53.360;6.290;2022-12-29T04:20:38;6.35;;;3.30;;
64395;SDS011;50717;53.360;6.290;2022-12-29T04:23:22;8.18;;;3.33;;
64395;SDS011;50717;53.360;6.290;2022-12-29T04:25:48;13.82;;;3.05;;
64395;SDS011;50717;53.360;6.290;2022-12-29T04:28:14;9.70;;;2.80;;
64395;SDS011;50717;53.360;6.290;2022-12-29T04:30:40;14.80;;;3.53;;
64395;SDS011;50717;53.360;6.290;2022-12-29T04:33:08;10.55;;;2.83;;
64395;SDS011;50717;53.360;6.290;2022-12-29T04:35:33;6.93;;;2.85;;
64395;SDS011;50717;53.360;6.290;2022-12-29T04:37:59;11.43;;;2.47;;
64395;SDS011;50717;53.360;6.290;2022-12-29T04:40:25;12.68;;;2.90;;
64395;SDS011;50717;53.360;6.290;2022-12-29T04:42:50;11.68;;;2.70;;
64395;SDS011;50717;53.360;6.290;2022-12-29T04:45:16;12.75;;;2.47;;
64395;SDS011;50717;53.360;6.290;2022-12-29T04:47:42;10.73;;;2.80;;
64395;SDS011;50717;53.360;6.290;2022-12-29T04:50:08;14.35;;;2.55;;
64395;SDS011;50717;53.360;6.290;2022-12-29T04:52:34;21.08;;;3.22;;
64395;SDS011;50717;53.360;6.290;2022-12-29T04:57:26;12.43;;;2.38;;
64395;SDS011;50717;53.360;6.290;2022-12-29T04:59:51;11.85;;;2.47;;
64395;SDS011;50717;53.360;6.290;2022-12-29T05:02:17;18.00;;;3.22;;
64395;SDS011;50717;53.360;6.290;2022-12-29T05:04:43;12.90;;;3.17;;
64395;SDS011;50717;53.360;6.290;2022-12-29T05:07:08;15.23;;;2.60;;
64395;SDS011;50717;53.360;6.290;2022-12-29T05:09:34;17.13;;;2.97;;
64395;SDS011;50717;53.360;6.290;2022-12-29T05:12:00;18.90;;;3.65;;
64395;SDS011;50717;53.360;6.290;2022-12-29T05:14:26;14.20;;;2.67;;
64395;SDS011;50717;53.360;6.290;2022-12-29T05:16:51;16.95;;;2.50;;
64395;SDS011;50717;53.360;6.290;2022-12-29T05:19:17;15.98;;;3.13;;
64395;SDS011;50717;53.360;6.290;2022-12-29T05:21:43;20.85;;;2.90;;
64395;SDS011;50717;53.360;6.290;2022-12-29T05:24:08;14.10;;;3.20;;
64395;SDS011;50717;53.360;6.290;2022-12-29T05:26:34;19.33;;;4.47;;
64395;SDS011;50717;53.360;6.290;2022-12-29T05:29:00;18.95;;;2.40;;
64395;SDS011;50717;53.360;6.290;2022-12-29T05:31:26;26.70;;;3.40;;
64395;SDS011;50717;53.360;6.290;2022-12-29T05:33:52;22.95;;;3.45;;
64395;SDS011;50717;53.360;6.290;2022-12-29T05:36:18;16.88;;;2.80;;
64395;SDS011;50717;53.360;6.290;2022-12-29T05:38:44;28.08;;;3.78;;
64395;SDS011;50717;53.360;6.290;2022-12-29T05:41:10;19.50;;;3.38;;
64395;SDS011;50717;53.360;6.290;2022-12-29T05:43:35;19.77;;;3.05;;
64395;SDS011;50717;53.360;6.290;2022-12-29T05:46:01;16.23;;;2.75;;
64395;SDS011;50717;53.360;6.290;2022-12-29T05:48:28;16.70;;;2.97;;
64395;SDS011;50717;53.360;6.290;2022-12-29T05:50:53;19.63;;;2.80;;
64395;SDS011;50717;53.360;6.290;2022-12-29T05:53:19;22.70;;;2.88;;
64395;SDS011;50717;53.360;6.290;2022-12-29T05:55:48;17.25;;;3.33;;
64395;SDS011;50717;53.360;6.290;2022-12-29T05:58:14;14.65;;;3.35;;
64395;SDS011;50717;53.360;6.290;2022-12-29T06:00:41;16.95;;;3.00;;
64395;SDS011;50717;53.360;6.290;2022-12-29T06:03:07;17.20;;;2.63;;
64395;SDS011;50717;53.360;6.290;2022-12-29T06:05:33;19.42;;;3.22;;
64395;SDS011;50717;53.360;6.290;2022-12-29T06:07:58;18.33;;;3.58;;
64395;SDS011;50717;53.360;6.290;2022-12-29T06:10:24;15.82;;;2.70;;
64395;SDS011;50717;53.360;6.290;2022-12-29T06:12:50;19.60;;;3.45;;
64395;SDS011;50717;53.360;6.290;2022-12-29T06:15:16;19.15;;;3.30;;
64395;SDS011;50717;53.360;6.290;2022-12-29T06:17:42;20.38;;;3.25;;
64395;SDS011;50717;53.360;6.290;2022-12-29T06:20:08;12.57;;;3.13;;
64395;SDS011;50717;53.360;6.290;2022-12-29T06:22:34;24.02;;;3.83;;
64395;SDS011;50717;53.360;6.290;2022-12-29T06:25:00;11.88;;;2.67;;
64395;SDS011;50717;53.360;6.290;2022-12-29T06:29:52;17.50;;;2.90;;
64395;SDS011;50717;53.360;6.290;2022-12-29T06:32:18;26.08;;;3.47;;
64395;SDS011;50717;53.360;6.290;2022-12-29T06:34:43;16.55;;;3.20;;
64395;SDS011;50717;53.360;6.290;2022-12-29T06:37:10;18.92;;;3.72;;
64395;SDS011;50717;53.360;6.290;2022-12-29T06:42:02;23.13;;;3.80;;
64395;SDS011;50717;53.360;6.290;2022-12-29T06:46:54;20.42;;;3.00;;
64395;SDS011;50717;53.360;6.290;2022-12-29T06:49:19;21.83;;;3.78;;
64395;SDS011;50717;53.360;6.290;2022-12-29T06:51:45;29.08;;;4.70;;
64395;SDS011;50717;53.360;6.290;2022-12-29T06:54:11;37.95;;;6.53;;
64395;SDS011;50717;53.360;6.290;2022-12-29T06:56:37;24.50;;;3.80;;
64395;SDS011;50717;53.360;6.290;2022-12-29T06:59:03;32.30;;;4.53;;
64395;SDS011;50717;53.360;6.290;2022-12-29T07:01:28;33.33;;;4.43;;
64395;SDS011;50717;53.360;6.290;2022-12-29T07:03:54;19.98;;;3.60;;
64395;SDS011;50717;53.360;6.290;2022-12-29T07:06:20;24.42;;;4.20;;
64395;SDS011;50717;53.360;6.290;2022-12-29T07:08:46;32.15;;;4.07;;
64395;SDS011;50717;53.360;6.290;2022-12-29T07:11:11;27.23;;;4.45;;
64395;SDS011;50717;53.360;6.290;2022-12-29T07:13:37;19.60;;;3.63;;
64395;SDS011;50717;53.360;6.290;2022-12-29T07:16:09;33.35;;;4.57;;
64395;SDS011;50717;53.360;6.290;2022-12-29T07:18:35;28.60;;;4.10;;
64395;SDS011;50717;53.360;6.290;2022-12-29T07:21:01;32.33;;;3.97;;
64395;SDS011;50717;53.360;6.290;2022-12-29T07:23:28;23.92;;;4.28;;
64395;SDS011;50717;53.360;6.290;2022-12-29T07:26:04;27.80;;;5.20;;
64395;SDS011;50717;53.360;6.290;2022-12-29T07:28:31;30.05;;;5.20;;
64395;SDS011;50717;53.360;6.290;2022-12-29T07:30:58;20.67;;;4.18;;
64395;SDS011;50717;53.360;6.290;2022-12-29T07:33:24;28.17;;;3.63;;
64395;SDS011;50717;53.360;6.290;2022-12-29T07:35:50;32.55;;;4.30;;
64395;SDS011;50717;53.360;6.290;2022-12-29T07:38:16;29.83;;;4.63;;
64395;SDS011;50717;53.360;6.290;2022-12-29T07:40:42;27.42;;;4.30;;
64395;SDS011;50717;53.360;6.290;2022-12-29T07:43:08;26.13;;;4.30;;
64395;SDS011;50717;53.360;6.290;2022-12-29T07:45:34;26.88;;;4.75;;
64395;SDS011;50717;53.360;6.290;2022-12-29T07:48:00;28.92;;;4.32;;
64395;SDS011;50717;53.360;6.290;2022-12-29T07:50:27;32.20;;;4.93;;
64395;SDS011;50717;53.360;6.290;2022-12-29T07:52:53;18.67;;;3.85;;
64395;SDS011;50717;53.360;6.290;2022-12-29T07:55:19;33.10;;;4.53;;
64395;SDS011;50717;53.360;6.290;2022-12-29T07:57:44;23.67;;;4.55;;
64395;SDS011;50717;53.360;6.290;2022-12-29T08:00:10;25.52;;;4.75;;
64395;SDS011;50717;53.360;6.290;2022-12-29T08:02:36;22.77;;;3.72;;
64395;SDS011;50717;53.360;6.290;2022-12-29T08:05:02;30.73;;;4.07;;
64395;SDS011;50717;53.360;6.290;2022-12-29T08:07:28;33.90;;;4.28;;
64395;SDS011;50717;53.360;6.290;2022-12-29T08:09:54;20.33;;;3.75;;
64395;SDS011;50717;53.360;6.290;2022-12-29T08:12:19;21.55;;;3.50;;
64395;SDS011;50717;53.360;6.290;2022-12-29T08:14:45;25.90;;;4.38;;
64395;SDS011;50717;53.360;6.290;2022-12-29T08:17:11;24.77;;;4.45;;
64395;SDS011;50717;53.360;6.290;2022-12-29T08:19:37;16.85;;;3.03;;
64395;SDS011;50717;53.360;6.290;2022-12-29T08:24:28;24.70;;;4.30;;
64395;SDS011;50717;53.360;6.290;2022-12-29T08:26:54;30.50;;;4.50;;
64395;SDS011;50717;53.360;6.290;2022-12-29T08:29:20;28.27;;;4.38;;
64395;SDS011;50717;53.360;6.290;2022-12-29T08:31:46;29.02;;;4.28;;
64395;SDS011;50717;53.360;6.290;2022-12-29T08:36:38;31.23;;;4.57;;
64395;SDS011;50717;53.360;6.290;2022-12-29T08:39:04;28.00;;;4.70;;
64395;SDS011;50717;53.360;6.290;2022-12-29T08:41:30;28.95;;;4.78;;
64395;SDS011;50717;53.360;6.290;2022-12-29T08:43:56;28.25;;;4.82;;
64395;SDS011;50717;53.360;6.290;2022-12-29T08:46:21;23.67;;;4.38;;
64395;SDS011;50717;53.360;6.290;2022-12-29T08:48:47;28.63;;;4.55;;
64395;SDS011;50717;53.360;6.290;2022-12-29T08:51:13;25.55;;;4.63;;
64395;SDS011;50717;53.360;6.290;2022-12-29T08:53:39;31.15;;;4.80;;
64395;SDS011;50717;53.360;6.290;2022-12-29T08:56:05;25.15;;;4.32;;
64395;SDS011;50717;53.360;6.290;2022-12-29T08:58:31;29.02;;;4.55;;
64395;SDS011;50717;53.360;6.290;2022-12-29T09:00:57;33.90;;;4.75;;
64395;SDS011;50717;53.360;6.290;2022-12-29T09:03:24;27.25;;;3.85;;
64395;SDS011;50717;53.360;6.290;2022-12-29T09:05:51;31.17;;;4.70;;
64395;SDS011;50717;53.360;6.290;2022-12-29T09:08:17;37.08;;;4.30;;
64395;SDS011;50717;53.360;6.290;2022-12-29T09:10:44;31.55;;;4.05;;
64395;SDS011;50717;53.360;6.290;2022-12-29T09:15:36;27.67;;;4.32;;
64395;SDS011;50717;53.360;6.290;2022-12-29T09:18:02;30.15;;;5.00;;
64395;SDS011;50717;53.360;6.290;2022-12-29T09:20:28;32.97;;;4.97;;
64395;SDS011;50717;53.360;6.290;2022-12-29T09:22:54;33.70;;;4.72;;
64395;SDS011;50717;53.360;6.290;2022-12-29T09:25:19;36.65;;;5.07;;
64395;SDS011;50717;53.360;6.290;2022-12-29T09:27:47;35.13;;;5.20;;
64395;SDS011;50717;53.360;6.290;2022-12-29T09:30:13;31.17;;;5.47;;
64395;SDS011;50717;53.360;6.290;2022-12-29T09:32:39;33.08;;;5.97;;
